Time;durP1;ratioP1;P1;durP2;ratioP2;P2;SDS_P1;SDS_P2;PMS_P1;PMS_P2;Temp;Humidity;BMP_temperature;BMP_pressure;BME280_temperature;BME280_humidity;BME280_pressure;Samples;Min_cycle;Max_cycle;Signal;HPM_P1;HPM_P2
2021/01/03 00:00:12;;;;;;;77.97;30.87;;;4.00;99.90;;;;;;5028190;28;20298;-83
2021/01/03 00:02:39;;;;;;;56.87;26.27;;;4.00;99.90;;;;;;5028597;28;20202;-83
2021/01/03 00:05:06;;;;;;;64.47;26.47;;;4.00;99.90;;;;;;5029096;28;20276;-84
2021/01/03 00:07:32;;;;;;;68.17;26.63;;;4.00;99.90;;;;;;5027558;28;20511;-83
2021/01/03 00:09:59;;;;;;;66.40;25.67;;;4.00;99.90;;;;;;5028910;28;20210;-84
2021/01/03 00:12:25;;;;;;;56.90;24.33;;;4.00;99.90;;;;;;5030619;28;20206;-83
2021/01/03 00:14:51;;;;;;;56.97;23.57;;;4.00;99.90;;;;;;5031430;28;20205;-84
2021/01/03 00:17:18;;;;;;;51.73;23.37;;;4.00;99.90;;;;;;5030733;28;20214;-84
2021/01/03 00:19:44;;;;;;;72.30;27.17;;;4.00;99.90;;;;;;5031538;28;20206;-85
2021/01/03 00:22:11;;;;;;;63.87;25.23;;;4.00;99.90;;;;;;5046779;22;20241;-85
2021/01/03 00:24:37;;;;;;;59.27;24.13;;;4.00;99.90;;;;;;5071014;28;20228;-83
2021/01/03 00:27:04;;;;;;;58.33;26.00;;;4.00;99.90;;;;;;5069697;28;20649;-84
2021/01/03 00:29:30;;;;;;;58.90;24.07;;;4.00;99.90;;;;;;5071255;28;20501;-86
2021/01/03 00:32:01;;;;;;;61.30;26.10;;;3.90;99.90;;;;;;5070739;28;20236;-85
2021/01/03 00:34:28;;;;;;;55.60;23.53;;;4.00;99.90;;;;;;5071328;28;20198;-86
2021/01/03 00:36:54;;;;;;;55.00;23.30;;;4.00;99.90;;;;;;5070950;28;20201;-85
2021/01/03 00:39:21;;;;;;;56.27;24.17;;;4.00;99.90;;;;;;5070880;28;20209;-85
2021/01/03 00:41:48;;;;;;;53.30;23.80;;;4.00;99.90;;;;;;5070908;28;20221;-84
2021/01/03 00:44:15;;;;;;;51.77;23.20;;;3.90;99.90;;;;;;5070023;28;20682;-85
2021/01/03 00:46:42;;;;;;;49.53;23.33;;;3.90;99.90;;;;;;5069754;28;20190;-84
2021/01/03 00:49:08;;;;;;;49.10;21.73;;;4.00;99.90;;;;;;5070917;28;20201;-86
2021/01/03 00:51:35;;;;;;;49.53;22.20;;;4.00;99.90;;;;;;5070621;28;20282;-85
2021/01/03 00:54:02;;;;;;;50.93;22.93;;;4.00;99.90;;;;;;5070751;28;20202;-87
2021/01/03 00:56:28;;;;;;;59.47;23.77;;;3.90;99.90;;;;;;5070699;28;20197;-86
2021/01/03 00:58:54;;;;;;;51.57;22.03;;;3.90;99.90;;;;;;5071392;28;20205;-86
2021/01/03 01:01:21;;;;;;;53.63;23.67;;;3.90;99.90;;;;;;5070930;28;20243;-87
2021/01/03 01:03:47;;;;;;;51.57;22.47;;;3.90;99.90;;;;;;5071360;28;20284;-86
2021/01/03 01:06:14;;;;;;;53.77;22.40;;;4.00;99.90;;;;;;5070556;28;20621;-85
2021/01/03 01:08:41;;;;;;;48.83;22.23;;;4.00;99.90;;;;;;5071327;28;20200;-86
2021/01/03 01:11:08;;;;;;;45.13;22.37;;;3.90;99.90;;;;;;5070429;28;20217;-84
2021/01/03 01:13:34;;;;;;;49.97;23.77;;;4.00;99.90;;;;;;5070613;28;20205;-86
2021/01/03 01:16:02;;;;;;;49.67;22.90;;;4.00;99.90;;;;;;5070300;28;20213;-86
2021/01/03 01:18:28;;;;;;;49.87;22.27;;;4.00;99.90;;;;;;5071222;28;20272;-86
2021/01/03 01:20:54;;;;;;;48.90;22.50;;;4.00;99.90;;;;;;5070707;28;20208;-83
2021/01/03 01:23:21;;;;;;;36.67;19.50;;;4.00;99.90;;;;;;5069442;28;20236;-86
2021/01/03 01:25:48;;;;;;;43.03;20.83;;;3.90;99.90;;;;;;5070238;28;20248;-85
2021/01/03 01:28:15;;;;;;;41.93;21.23;;;3.90;99.90;;;;;;5069891;28;20216;-85
2021/01/03 01:30:41;;;;;;;47.70;22.40;;;3.90;99.90;;;;;;5070787;28;20869;-86
2021/01/03 01:33:08;;;;;;;44.53;20.60;;;3.90;99.90;;;;;;5069324;28;20773;-86
2021/01/03 01:35:36;;;;;;;48.30;23.20;;;3.90;99.90;;;;;;5070577;28;20189;-86
2021/01/03 01:38:04;;;;;;;45.03;21.03;;;3.90;99.90;;;;;;5070231;28;20466;-85
2021/01/03 01:40:33;;;;;;;41.77;21.63;;;3.90;99.90;;;;;;5070530;28;20255;-85
2021/01/03 01:43:00;;;;;;;43.73;21.47;;;3.90;99.90;;;;;;5070054;28;20205;-86
2021/01/03 01:45:30;;;;;;;43.83;20.60;;;4.00;99.90;;;;;;5070283;28;20224;-83
2021/01/03 01:48:00;;;;;;;41.73;20.07;;;4.00;99.90;;;;;;5070006;28;20207;-85
2021/01/03 01:50:34;;;;;;;35.77;20.43;;;4.10;99.90;;;;;;5070614;28;20200;-86
2021/01/03 01:53:03;;;;;;;35.53;18.57;;;4.10;99.90;;;;;;5070322;28;20288;-84
2021/01/03 01:55:33;;;;;;;40.13;19.97;;;4.10;99.90;;;;;;5070261;28;20197;-85
2021/01/03 01:58:07;;;;;;;38.37;19.60;;;4.10;99.90;;;;;;5070297;28;20464;-86
2021/01/03 02:00:35;;;;;;;34.47;18.37;;;4.10;99.90;;;;;;5064941;28;20205;-85
2021/01/03 02:03:10;;;;;;;35.43;18.63;;;4.00;99.90;;;;;;5062870;28;20261;-85
2021/01/03 02:05:44;;;;;;;44.37;20.10;;;4.10;99.90;;;;;;5068884;28;20239;-85
2021/01/03 02:08:18;;;;;;;44.67;20.63;;;4.00;99.90;;;;;;5070004;28;20193;-85
2021/01/03 02:10:46;;;;;;;36.97;18.47;;;4.00;99.90;;;;;;5069978;28;20214;-86
2021/01/03 02:13:23;;;;;;;38.07;18.87;;;4.10;99.90;;;;;;5069726;28;20862;-85
2021/01/03 02:15:50;;;;;;;37.60;18.63;;;4.10;99.90;;;;;;5070406;28;20196;-84
2021/01/03 02:18:17;;;;;;;34.17;18.53;;;4.10;99.90;;;;;;5069767;28;20201;-86
2021/01/03 02:20:59;;;;;;;35.07;18.20;;;4.10;99.90;;;;;;5070493;28;20201;-85
2021/01/03 02:23:37;;;;;;;37.57;19.93;;;4.10;99.90;;;;;;5069523;28;20244;-85
2021/01/03 02:26:05;;;;;;;41.50;20.87;;;4.10;99.90;;;;;;5070356;28;20212;-87
2021/01/03 02:28:37;;;;;;;33.20;18.50;;;4.10;99.90;;;;;;5070067;28;20202;-86
2021/01/03 02:31:05;;;;;;;34.30;17.87;;;4.10;99.90;;;;;;5069973;28;20574;-86
2021/01/03 02:33:37;;;;;;;35.80;18.50;;;4.10;99.90;;;;;;5070685;28;20229;-86
2021/01/03 02:36:07;;;;;;;34.87;16.60;;;4.10;99.90;;;;;;5069983;28;20204;-86
2021/01/03 02:38:37;;;;;;;32.00;18.23;;;4.10;99.90;;;;;;5070009;28;20185;-86
2021/01/03 02:41:04;;;;;;;35.03;18.00;;;4.10;99.90;;;;;;5069692;28;20267;-86
2021/01/03 02:43:30;;;;;;;31.07;17.07;;;4.10;99.90;;;;;;5069561;28;20216;-86
2021/01/03 02:45:57;;;;;;;38.80;19.20;;;4.10;99.90;;;;;;5070193;28;20209;-86
2021/01/03 02:48:24;;;;;;;38.07;19.30;;;4.10;99.90;;;;;;5068647;28;20793;-86
2021/01/03 02:50:51;;;;;;;37.03;18.83;;;4.10;99.90;;;;;;5073301;28;20197;-86
2021/01/03 02:53:18;;;;;;;30.80;17.83;;;4.10;99.90;;;;;;5073537;28;20205;-86
2021/01/03 02:55:45;;;;;;;36.17;18.87;;;4.10;99.90;;;;;;5073218;28;20403;-86
2021/01/03 02:58:12;;;;;;;33.53;19.70;;;4.10;99.90;;;;;;5073112;28;20220;-85
2021/01/03 03:00:39;;;;;;;34.87;19.10;;;4.10;99.90;;;;;;5073644;28;20704;-86
2021/01/03 03:03:07;;;;;;;32.83;18.33;;;4.10;99.90;;;;;;5073269;28;20200;-85
2021/01/03 03:05:33;;;;;;;37.07;17.20;;;4.10;99.90;;;;;;5072739;28;20515;-86
2021/01/03 03:08:00;;;;;;;37.20;18.40;;;4.10;99.90;;;;;;5072866;28;20601;-86
2021/01/03 03:10:27;;;;;;;36.07;18.97;;;4.10;99.90;;;;;;5072930;28;20209;-86
2021/01/03 03:12:55;;;;;;;31.63;16.90;;;4.10;99.90;;;;;;5072690;28;20209;-85
2021/01/03 03:15:25;;;;;;;35.47;19.07;;;4.10;99.90;;;;;;5072767;28;20189;-86
2021/01/03 03:17:52;;;;;;;35.83;18.13;;;4.10;99.90;;;;;;5072984;28;20593;-86
2021/01/03 03:20:19;;;;;;;39.20;18.70;;;4.10;99.90;;;;;;5073255;28;20201;-85
2021/01/03 03:22:46;;;;;;;30.70;17.07;;;4.10;99.90;;;;;;5073036;28;20287;-86
2021/01/03 03:25:14;;;;;;;35.73;18.33;;;4.00;99.90;;;;;;5072351;28;20542;-85
2021/01/03 03:27:41;;;;;;;29.27;17.43;;;4.00;99.90;;;;;;5072774;28;20593;-86
2021/01/03 03:30:10;;;;;;;35.43;18.00;;;4.00;99.90;;;;;;5072011;28;20201;-85
2021/01/03 03:32:37;;;;;;;32.23;17.73;;;4.00;99.90;;;;;;5072709;28;20547;-85
2021/01/03 03:35:04;;;;;;;34.47;18.60;;;4.10;99.90;;;;;;5072369;28;20204;-85
2021/01/03 03:37:31;;;;;;;35.63;18.87;;;4.10;99.90;;;;;;5072739;28;20217;-86
2021/01/03 03:39:57;;;;;;;31.57;18.17;;;4.10;99.90;;;;;;5070400;28;20202;-85
2021/01/03 03:42:23;;;;;;;32.43;16.97;;;4.10;99.90;;;;;;5066016;28;20205;-85
2021/01/03 03:44:49;;;;;;;30.47;17.77;;;4.00;99.90;;;;;;5070163;28;20232;-84
2021/01/03 03:47:16;;;;;;;31.33;17.57;;;4.00;99.90;;;;;;5071898;28;20209;-83
2021/01/03 03:49:43;;;;;;;32.30;17.67;;;3.90;99.90;;;;;;5071777;28;20593;-83
2021/01/03 03:52:09;;;;;;;33.60;18.23;;;3.90;99.90;;;;;;5072283;28;20201;-84
2021/01/03 03:54:35;;;;;;;30.03;17.37;;;3.80;99.90;;;;;;5071959;28;20208;-85
2021/01/03 03:57:06;;;;;;;34.10;18.33;;;3.70;99.90;;;;;;5071816;28;20197;-85
2021/01/03 03:59:32;;;;;;;38.97;20.13;;;3.70;99.90;;;;;;5072093;28;20629;-84
2021/01/03 04:01:59;;;;;;;36.13;18.57;;;3.70;99.90;;;;;;5071332;28;20201;-84
2021/01/03 04:04:26;;;;;;;36.13;19.40;;;3.70;99.90;;;;;;5071409;28;20527;-82
2021/01/03 04:06:54;;;;;;;34.03;18.30;;;3.70;99.90;;;;;;5071920;28;20217;-84
2021/01/03 04:09:21;;;;;;;34.37;17.50;;;3.80;99.90;;;;;;5071622;28;20209;-84
2021/01/03 04:11:49;;;;;;;39.83;19.47;;;3.70;99.90;;;;;;5071774;28;20201;-85
2021/01/03 04:14:19;;;;;;;32.93;17.53;;;3.70;99.90;;;;;;5071084;28;20212;-85
2021/01/03 04:16:46;;;;;;;29.70;16.70;;;3.60;99.90;;;;;;5071998;28;20368;-84
2021/01/03 04:19:13;;;;;;;28.23;16.10;;;3.60;99.90;;;;;;5071194;28;20208;-83
2021/01/03 04:21:39;;;;;;;29.73;16.33;;;3.50;99.90;;;;;;5072088;28;20200;-84
2021/01/03 04:24:07;;;;;;;31.67;16.53;;;3.50;99.90;;;;;;5071258;28;20241;-85
2021/01/03 04:26:34;;;;;;;31.07;17.83;;;3.40;99.90;;;;;;5072164;28;20529;-85
2021/01/03 04:29:01;;;;;;;29.57;17.17;;;3.40;99.90;;;;;;5071783;28;20221;-84
2021/01/03 04:31:27;;;;;;;30.57;18.13;;;3.30;99.90;;;;;;5071205;28;20205;-85
2021/01/03 04:33:53;;;;;;;31.60;17.47;;;3.30;99.90;;;;;;5071387;28;20223;-86
2021/01/03 04:36:20;;;;;;;33.00;18.13;;;3.20;99.90;;;;;;5071621;28;20197;-84
2021/01/03 04:38:47;;;;;;;35.77;16.73;;;3.20;99.90;;;;;;5071878;28;20206;-85
2021/01/03 04:41:19;;;;;;;35.10;17.97;;;3.20;99.90;;;;;;5071090;28;20598;-85
2021/01/03 04:43:46;;;;;;;37.23;19.03;;;3.30;99.90;;;;;;5071068;28;20186;-85
2021/01/03 04:46:16;;;;;;;37.93;20.40;;;3.30;99.90;;;;;;5070892;28;20205;-85
2021/01/03 04:48:43;;;;;;;35.90;17.93;;;3.30;99.90;;;;;;5071759;28;20581;-85
2021/01/03 04:51:22;;;;;;;43.43;19.77;;;3.40;99.90;;;;;;5070604;28;20981;-85
2021/01/03 04:53:58;;;;;;;37.47;19.33;;;3.40;99.90;;;;;;5071321;28;20189;-85
2021/01/03 04:56:34;;;;;;;42.20;21.03;;;3.50;99.90;;;;;;5066574;28;20209;-85
2021/01/03 04:59:15;;;;;;;39.70;20.50;;;3.60;99.90;;;;;;5070567;28;20208;-84
2021/01/03 05:02:16;;;;;;;43.23;20.40;;;3.70;99.90;;;;;;5071032;28;20289;-85
2021/01/03 05:04:49;;;;;;;40.57;20.80;;;3.70;99.90;;;;;;5071979;28;20228;-86
2021/01/03 05:07:24;;;;;;;41.50;20.37;;;3.60;99.90;;;;;;5072088;28;20193;-85
2021/01/03 05:09:52;;;;;;;43.23;22.27;;;3.60;99.90;;;;;;5072622;28;20243;-85
2021/01/03 05:12:25;;;;;;;42.87;21.07;;;3.60;99.90;;;;;;5071164;28;20597;-85
2021/01/03 05:15:01;;;;;;;44.07;22.83;;;3.60;99.90;;;;;;5071898;28;20232;-85
2021/01/03 05:17:28;;;;;;;38.57;21.60;;;3.60;99.90;;;;;;5070606;28;20201;-84
2021/01/03 05:19:54;;;;;;;40.47;21.00;;;3.60;99.90;;;;;;5070527;28;20200;-86
2021/01/03 05:22:29;;;;;;;41.13;21.30;;;3.60;99.90;;;;;;5058258;28;20242;-85
2021/01/03 05:24:57;;;;;;;38.00;20.83;;;3.60;99.90;;;;;;5054575;28;20634;-86
2021/01/03 05:27:25;;;;;;;37.50;20.20;;;3.70;99.90;;;;;;5060902;28;20206;-85
2021/01/03 05:29:51;;;;;;;49.57;22.53;;;3.70;99.90;;;;;;5052696;28;20593;-84
2021/01/03 05:32:28;;;;;;;44.90;21.10;;;3.60;99.90;;;;;;5050939;28;20217;-85
2021/01/03 05:34:54;;;;;;;42.73;22.93;;;3.70;99.90;;;;;;5051825;28;20198;-85
2021/01/03 05:37:24;;;;;;;37.87;20.77;;;3.70;99.90;;;;;;5050591;28;20202;-85
2021/01/03 05:39:51;;;;;;;48.13;22.70;;;3.70;99.90;;;;;;5050366;28;20478;-85
2021/01/03 05:42:34;;;;;;;43.53;21.17;;;3.70;99.90;;;;;;5048569;28;20216;-85
2021/01/03 05:45:05;;;;;;;38.33;20.47;;;3.70;99.90;;;;;;5049032;28;20244;-85
2021/01/03 05:47:34;;;;;;;38.70;21.97;;;3.70;99.90;;;;;;5050058;28;20271;-85
2021/01/03 05:50:15;;;;;;;46.70;22.23;;;3.70;99.90;;;;;;5049941;28;20255;-85
2021/01/03 05:52:51;;;;;;;45.27;22.93;;;3.70;99.90;;;;;;5049350;28;20205;-86
2021/01/03 05:55:25;;;;;;;42.60;21.93;;;3.70;99.90;;;;;;5049915;28;20209;-85
2021/01/03 05:58:16;;;;;;;47.93;22.57;;;3.70;99.90;;;;;;5050976;28;20208;-84
2021/01/03 06:00:43;;;;;;;45.07;20.97;;;3.70;99.90;;;;;;5049633;28;20213;-86
2021/01/03 06:03:17;;;;;;;42.10;23.20;;;3.70;99.90;;;;;;5049845;28;20201;-86
2021/01/03 06:05:45;;;;;;;47.63;23.97;;;3.70;99.90;;;;;;5049982;28;20519;-85
2021/01/03 06:08:16;;;;;;;45.17;23.30;;;3.70;99.90;;;;;;5050339;28;20208;-85
2021/01/03 06:10:43;;;;;;;45.17;21.77;;;3.70;99.90;;;;;;5050632;28;20264;-85
2021/01/03 06:13:12;;;;;;;45.37;21.83;;;3.70;99.90;;;;;;5050310;28;20222;-86
2021/01/03 06:15:43;;;;;;;44.67;23.03;;;3.70;99.90;;;;;;5050115;28;20900;-85
2021/01/03 06:18:18;;;;;;;40.07;22.07;;;3.70;99.90;;;;;;5050065;28;20595;-83
2021/01/03 06:20:44;;;;;;;47.17;21.67;;;3.70;99.90;;;;;;5050075;28;20193;-85
2021/01/03 06:23:14;;;;;;;47.93;23.53;;;3.70;99.90;;;;;;5049345;28;20249;-86
2021/01/03 06:25:52;;;;;;;44.67;22.90;;;3.70;99.90;;;;;;5052734;28;20279;-86
2021/01/03 06:28:38;;;;;;;44.67;23.37;;;3.70;99.90;;;;;;5053653;28;20209;-86
2021/01/03 06:31:28;;;;;;;50.90;24.90;;;3.70;99.90;;;;;;5053724;28;20194;-84
2021/01/03 06:34:01;;;;;;;47.97;23.03;;;3.70;99.90;;;;;;5052962;28;20202;-86
2021/01/03 06:36:39;;;;;;;42.13;23.20;;;3.70;99.90;;;;;;5053769;28;20206;-86
2021/01/03 06:39:29;;;;;;;50.77;23.90;;;3.70;99.90;;;;;;5053478;28;20216;-86
2021/01/03 06:41:59;;;;;;;51.33;24.73;;;3.80;99.90;;;;;;5053541;28;20221;-85
2021/01/03 06:44:53;;;;;;;43.17;22.57;;;3.80;99.90;;;;;;5053697;28;20232;-84
2021/01/03 06:47:49;;;;;;;45.97;22.97;;;3.80;99.90;;;;;;5052997;28;20198;-85
2021/01/03 06:50:45;;;;;;;44.47;22.80;;;3.80;99.90;;;;;;5052877;28;20586;-85
2021/01/03 06:53:28;;;;;;;50.57;24.53;;;3.80;99.90;;;;;;5053634;28;20252;-86
2021/01/03 06:56:30;;;;;;;43.77;23.20;;;3.80;99.90;;;;;;5053820;28;20191;-84
2021/01/03 06:59:21;;;;;;;46.90;23.67;;;3.80;99.90;;;;;;5052777;28;20259;-85
2021/01/03 07:01:49;;;;;;;45.73;24.37;;;3.80;99.90;;;;;;5048198;28;20898;-85
2021/01/03 07:04:22;;;;;;;46.33;22.30;;;3.80;99.90;;;;;;5039313;28;20299;-85
2021/01/03 07:06:50;;;;;;;47.37;23.77;;;3.80;99.90;;;;;;5048503;28;20228;-85
2021/01/03 07:09:17;;;;;;;47.90;24.40;;;3.80;99.90;;;;;;5047785;28;20202;-86
2021/01/03 07:11:48;;;;;;;56.83;25.17;;;3.80;99.90;;;;;;5052086;28;20263;-85
2021/01/03 07:14:47;;;;;;;44.23;23.40;;;3.80;99.90;;;;;;5051661;28;20202;-86
2021/01/03 07:17:16;;;;;;;40.50;21.77;;;3.80;99.90;;;;;;5051941;28;20212;-85
2021/01/03 07:19:51;;;;;;;48.30;23.57;;;3.80;99.90;;;;;;5052280;28;20264;-84
2021/01/03 07:22:23;;;;;;;48.33;25.83;;;3.80;99.90;;;;;;5051874;28;20229;-84
2021/01/03 07:25:16;;;;;;;47.97;23.53;;;3.90;99.90;;;;;;5051966;28;20319;-82
2021/01/03 07:27:44;;;;;;;48.07;24.83;;;3.90;99.90;;;;;;5050762;28;20672;-84
2021/01/03 07:30:23;;;;;;;52.87;24.90;;;3.90;99.90;;;;;;5046449;28;20206;-83
2021/01/03 07:33:00;;;;;;;51.50;26.90;;;3.80;99.90;;;;;;5046166;28;20198;-86
2021/01/03 07:35:34;;;;;;;44.87;24.53;;;3.80;99.90;;;;;;5045490;28;20339;-83
2021/01/03 07:55:32;;;;;;;56.40;26.03;;;4.00;99.90;;;;;;5027376;28;20195;-83
2021/01/03 07:58:01;;;;;;;53.83;24.47;;;4.00;99.90;;;;;;5028085;28;20264;-83
2021/01/03 08:00:30;;;;;;;53.83;26.00;;;4.00;99.90;;;;;;5029140;28;20389;-84
2021/01/03 08:03:04;;;;;;;58.33;27.33;;;4.00;99.90;;;;;;5029209;28;20241;-84
2021/01/03 08:05:31;;;;;;;57.33;27.43;;;4.00;99.90;;;;;;5028198;28;20239;-83
2021/01/03 08:08:11;;;;;;;60.70;28.03;;;4.00;99.90;;;;;;5028279;28;20442;-83
2021/01/03 08:10:38;;;;;;;60.73;28.83;;;4.00;99.90;;;;;;5028591;28;20210;-83
2021/01/03 08:13:11;;;;;;;55.50;27.23;;;4.00;99.90;;;;;;5027659;28;20202;-83
2021/01/03 08:15:38;;;;;;;64.27;28.60;;;4.00;99.90;;;;;;5025952;28;20214;-83
2021/01/03 08:18:06;;;;;;;61.93;29.97;;;4.00;99.90;;;;;;5022291;28;20199;-84
2021/01/03 08:20:33;;;;;;;66.23;29.23;;;4.00;99.90;;;;;;5026192;28;20206;-82
2021/01/03 08:23:17;;;;;;;64.93;29.33;;;4.00;99.90;;;;;;5045336;28;20245;-82
2021/01/03 08:25:45;;;;;;;59.20;29.03;;;3.90;99.90;;;;;;5046638;28;20229;-82
2021/01/03 08:28:18;;;;;;;58.27;28.67;;;4.00;99.90;;;;;;5046376;28;20205;-86
2021/01/03 08:30:45;;;;;;;64.80;28.27;;;4.00;99.90;;;;;;5047885;28;20201;-84
2021/01/03 08:33:17;;;;;;;71.37;31.43;;;4.00;99.90;;;;;;5046561;28;20194;-82
2021/01/03 08:35:44;;;;;;;57.50;27.50;;;4.00;99.90;;;;;;5044317;28;20193;-82
2021/01/03 08:38:11;;;;;;;70.17;29.87;;;4.00;99.90;;;;;;5046535;28;20206;-86
2021/01/03 08:40:39;;;;;;;60.40;28.20;;;4.00;99.90;;;;;;5048209;28;20206;-82
2021/01/03 08:43:10;;;;;;;61.40;29.20;;;4.00;99.90;;;;;;5046169;28;20198;-83
2021/01/03 08:45:39;;;;;;;68.70;30.63;;;4.00;99.90;;;;;;5047749;28;20275;-83
2021/01/03 08:48:10;;;;;;;64.97;29.30;;;4.00;99.90;;;;;;5051349;28;20201;-83
2021/01/03 08:50:38;;;;;;;75.50;30.10;;;4.00;99.90;;;;;;5068750;28;20197;-82
2021/01/03 08:53:07;;;;;;;68.23;30.77;;;4.00;99.90;;;;;;5069904;28;20205;-83
2021/01/03 08:55:36;;;;;;;70.80;30.47;;;4.00;99.90;;;;;;5068830;28;20201;-84
2021/01/03 08:58:08;;;;;;;68.90;29.50;;;4.10;99.90;;;;;;5068744;28;20205;-82
2021/01/03 09:00:37;;;;;;;64.77;31.37;;;4.10;99.90;;;;;;5069624;28;20550;-86
2021/01/03 09:03:07;;;;;;;67.53;30.67;;;4.20;99.90;;;;;;5070084;28;20202;-82
2021/01/03 09:05:36;;;;;;;59.10;27.93;;;4.20;99.90;;;;;;5069435;28;20236;-81
2021/01/03 09:08:04;;;;;;;67.23;28.67;;;4.10;99.90;;;;;;5069122;28;20223;-82
2021/01/03 09:10:35;;;;;;;63.07;29.30;;;4.10;99.90;;;;;;5070213;28;20201;-84
2021/01/03 09:13:20;;;;;;;62.03;29.67;;;4.20;99.90;;;;;;5067173;28;20209;-82
2021/01/03 09:15:57;;;;;;;69.07;31.70;;;4.10;99.90;;;;;;5066073;28;20201;-80
2021/01/03 09:18:31;;;;;;;69.80;32.47;;;4.10;99.90;;;;;;5066267;28;20193;-85
2021/01/03 09:21:04;;;;;;;73.57;30.83;;;4.20;99.90;;;;;;5076403;28;20197;-85
2021/01/03 09:23:33;;;;;;;68.47;31.40;;;4.10;99.90;;;;;;5074175;28;20241;-83
2021/01/03 09:26:02;;;;;;;63.53;30.40;;;4.20;99.90;;;;;;5073523;28;20221;-84
2021/01/03 09:28:31;;;;;;;77.73;32.50;;;4.10;99.90;;;;;;5075277;28;20205;-84
2021/01/03 09:31:12;;;;;;;68.90;32.50;;;4.10;99.90;;;;;;5074671;28;20205;-83
2021/01/03 09:33:40;;;;;;;76.73;35.27;;;4.20;99.90;;;;;;5074879;28;20212;-84
2021/01/03 09:36:20;;;;;;;73.37;30.80;;;4.20;99.90;;;;;;5072188;28;20258;-83
2021/01/03 09:39:18;;;;;;;75.53;33.07;;;4.20;99.90;;;;;;5069873;28;20304;-82
2021/01/03 09:41:58;;;;;;;73.20;33.90;;;4.20;99.90;;;;;;5065348;28;20505;-82
2021/01/03 09:44:35;;;;;;;74.37;33.03;;;4.20;99.90;;;;;;5068730;28;20236;-82
2021/01/03 09:47:05;;;;;;;81.60;34.50;;;4.20;99.90;;;;;;5068178;28;20181;-84
2021/01/03 09:49:41;;;;;;;77.67;33.70;;;4.30;99.90;;;;;;5068849;28;20287;-82
2021/01/03 09:52:17;;;;;;;75.73;33.57;;;4.20;99.90;;;;;;5069336;28;20189;-83
2021/01/03 09:54:52;;;;;;;81.53;33.67;;;4.20;99.90;;;;;;5068928;28;20204;-82
2021/01/03 09:57:33;;;;;;;82.87;35.20;;;4.30;99.90;;;;;;5069005;28;20209;-83
2021/01/03 10:00:00;;;;;;;78.00;35.23;;;4.30;99.90;;;;;;5067821;28;20679;-83
2021/01/03 10:02:28;;;;;;;80.03;35.20;;;4.30;99.90;;;;;;5068953;28;20213;-82
2021/01/03 10:04:54;;;;;;;79.27;37.40;;;4.40;99.90;;;;;;5069424;28;20232;-82
2021/01/03 10:07:23;;;;;;;84.80;39.20;;;4.40;99.90;;;;;;5068969;28;20329;-82
2021/01/03 10:09:55;;;;;;;84.10;38.23;;;4.30;99.90;;;;;;5068462;28;20231;-82
2021/01/03 10:12:30;;;;;;;82.47;39.10;;;4.40;99.90;;;;;;5067792;28;20212;-82
2021/01/03 10:15:12;;;;;;;79.83;36.40;;;4.50;99.90;;;;;;5067926;28;20200;-82
2021/01/03 10:17:42;;;;;;;81.73;36.63;;;4.50;99.90;;;;;;5067254;28;20212;-82
2021/01/03 10:20:32;;;;;;;79.87;37.23;;;4.50;99.90;;;;;;5067214;28;20205;-82
2021/01/03 10:22:58;;;;;;;82.70;38.00;;;4.50;99.90;;;;;;5045433;28;20265;-82
2021/01/03 10:25:25;;;;;;;84.30;39.40;;;4.50;99.90;;;;;;5047815;28;20218;-81
2021/01/03 10:28:04;;;;;;;82.93;40.23;;;4.50;99.90;;;;;;5048196;28;20209;-82
2021/01/03 10:30:30;;;;;;;80.40;37.83;;;4.60;99.90;;;;;;5047695;28;20205;-82
2021/01/03 10:32:57;;;;;;;85.10;38.20;;;4.60;99.90;;;;;;5047333;28;20209;-82
2021/01/03 10:35:24;;;;;;;82.07;38.23;;;4.60;99.90;;;;;;5047551;28;20202;-81
2021/01/03 10:37:50;;;;;;;78.53;39.13;;;4.70;99.90;;;;;;5046173;28;20198;-81
2021/01/03 10:40:18;;;;;;;77.07;36.13;;;4.70;99.90;;;;;;5046618;28;20605;-81
2021/01/03 10:42:44;;;;;;;71.30;35.57;;;4.70;99.90;;;;;;5047754;28;20202;-82
2021/01/03 10:45:12;;;;;;;68.97;34.73;;;4.80;99.90;;;;;;5047764;28;20268;-82
2021/01/03 10:47:38;;;;;;;67.73;34.90;;;4.80;99.90;;;;;;5047431;28;20209;-82
2021/01/03 10:50:07;;;;;;;76.53;35.80;;;4.90;99.90;;;;;;5047459;28;20263;-82
2021/01/03 10:52:33;;;;;;;62.67;32.93;;;4.90;99.90;;;;;;5047959;28;20198;-83
2021/01/03 10:55:00;;;;;;;65.00;35.50;;;5.00;99.90;;;;;;5047890;28;20205;-83
2021/01/03 10:57:26;;;;;;;63.27;32.97;;;5.00;99.90;;;;;;5046581;28;20209;-82
2021/01/03 10:59:53;;;;;;;64.77;34.97;;;4.90;99.90;;;;;;5047243;28;20186;-82
2021/01/03 11:02:20;;;;;;;61.03;32.47;;;4.90;99.90;;;;;;5046142;28;20210;-84
2021/01/03 11:04:46;;;;;;;52.33;29.20;;;5.00;99.90;;;;;;5047045;28;20622;-83
2021/01/03 11:07:13;;;;;;;61.43;31.70;;;5.10;99.90;;;;;;5046652;28;20568;-82
2021/01/03 11:09:39;;;;;;;60.67;30.17;;;5.10;99.90;;;;;;5047456;28;20260;-87
2021/01/03 11:12:08;;;;;;;60.23;31.73;;;5.20;99.90;;;;;;5049533;28;20199;-81
2021/01/03 11:14:35;;;;;;;49.33;29.10;;;5.20;99.90;;;;;;5050311;28;20202;-83
2021/01/03 11:17:04;;;;;;;55.00;30.73;;;5.20;99.90;;;;;;5050775;28;20204;-81
2021/01/03 11:19:30;;;;;;;49.67;26.90;;;5.20;99.90;;;;;;5050973;28;20198;-84
2021/01/03 11:21:59;;;;;;;54.77;28.87;;;5.20;99.90;;;;;;5062109;28;20209;-84
2021/01/03 11:24:27;;;;;;;43.90;26.60;;;5.20;99.90;;;;;;5071810;28;20232;-84
2021/01/03 11:26:54;;;;;;;54.00;29.67;;;5.20;99.90;;;;;;5071775;28;20201;-85
2021/01/03 11:29:22;;;;;;;48.47;26.80;;;5.20;99.90;;;;;;5071638;28;20193;-83
2021/01/03 11:31:51;;;;;;;45.00;25.03;;;5.30;99.90;;;;;;5071591;28;20193;-83
2021/01/03 11:34:20;;;;;;;42.23;25.03;;;5.30;99.90;;;;;;5072184;28;20205;-84
2021/01/03 11:36:48;;;;;;;43.90;25.37;;;5.40;99.90;;;;;;5071808;28;20223;-83
2021/01/03 11:39:15;;;;;;;39.70;24.37;;;5.40;99.90;;;;;;5071191;28;20224;-83
2021/01/03 11:41:45;;;;;;;44.53;24.30;;;5.40;99.90;;;;;;5072082;28;20221;-84
2021/01/03 11:44:12;;;;;;;41.37;22.03;;;5.40;99.90;;;;;;5071265;28;20185;-84
2021/01/03 11:46:38;;;;;;;37.30;22.63;;;5.40;99.90;;;;;;5071745;28;20209;-86
2021/01/03 11:49:05;;;;;;;37.77;21.53;;;5.40;99.90;;;;;;5070856;28;20194;-82
2021/01/03 11:51:31;;;;;;;40.00;22.83;;;5.40;99.90;;;;;;5069699;28;20205;-80
2021/01/03 11:53:58;;;;;;;35.47;21.53;;;5.50;99.90;;;;;;5070361;28;20197;-84
2021/01/03 11:56:25;;;;;;;32.87;19.33;;;5.50;99.90;;;;;;5070447;28;20200;-85
2021/01/03 11:58:52;;;;;;;35.67;21.40;;;5.60;99.90;;;;;;5070959;28;20476;-85
2021/01/03 12:01:19;;;;;;;39.10;21.73;;;5.50;99.90;;;;;;5070945;28;20295;-83
2021/01/03 12:03:45;;;;;;;33.63;21.27;;;5.60;99.90;;;;;;5070566;28;20201;-83
2021/01/03 12:06:14;;;;;;;32.60;19.03;;;5.60;99.90;;;;;;5069892;28;20637;-85
2021/01/03 12:08:42;;;;;;;27.77;18.00;;;5.60;99.90;;;;;;5072003;28;20647;-86
2021/01/03 12:11:08;;;;;;;28.10;17.53;;;5.60;99.90;;;;;;5071105;28;20204;-86
2021/01/03 12:13:34;;;;;;;30.53;18.10;;;5.60;99.90;;;;;;5071911;28;20201;-84
2021/01/03 12:16:01;;;;;;;28.83;17.80;;;5.60;99.90;;;;;;5072235;28;20193;-88
2021/01/03 12:18:28;;;;;;;28.50;17.07;;;5.50;99.90;;;;;;5072138;28;20209;-87
2021/01/03 12:20:54;;;;;;;30.67;18.07;;;5.50;99.90;;;;;;5072032;28;20201;-84
2021/01/03 12:23:20;;;;;;;29.27;16.83;;;5.40;99.90;;;;;;5070602;28;20244;-85
2021/01/03 12:25:47;;;;;;;30.47;17.60;;;5.50;99.90;;;;;;5071754;28;20229;-85
2021/01/03 12:28:13;;;;;;;27.50;17.00;;;5.50;99.90;;;;;;5071347;28;20232;-86
2021/01/03 12:30:39;;;;;;;28.07;16.90;;;5.50;99.90;;;;;;5071674;28;20189;-85
2021/01/03 12:33:06;;;;;;;28.13;16.87;;;5.40;99.90;;;;;;5071434;28;20193;-85
2021/01/03 12:35:33;;;;;;;27.03;15.83;;;5.40;99.90;;;;;;5071355;28;20193;-86
2021/01/03 12:37:59;;;;;;;28.43;17.67;;;5.50;99.90;;;;;;5072068;28;20251;-86
2021/01/03 12:40:26;;;;;;;25.00;15.67;;;5.50;99.90;;;;;;5069500;28;20536;-86
2021/01/03 12:42:52;;;;;;;21.77;14.10;;;5.50;99.90;;;;;;5065889;28;20597;-86
2021/01/03 12:45:18;;;;;;;26.90;15.83;;;5.50;99.90;;;;;;5063220;28;20245;-86
2021/01/03 12:47:45;;;;;;;26.80;16.90;;;5.50;99.90;;;;;;5065048;28;20201;-86
2021/01/03 12:50:13;;;;;;;23.03;14.23;;;5.40;99.90;;;;;;5053814;28;20223;-86
2021/01/03 12:52:39;;;;;;;24.33;15.03;;;5.50;99.90;;;;;;5069413;28;20208;-88
2021/01/03 12:55:06;;;;;;;27.43;16.00;;;5.50;99.90;;;;;;5071311;28;20201;-83
2021/01/03 12:57:33;;;;;;;25.73;15.70;;;5.50;99.90;;;;;;5071172;28;20198;-87
2021/01/03 12:59:59;;;;;;;28.77;17.10;;;5.60;99.90;;;;;;5069340;28;20213;-86
2021/01/03 13:02:25;;;;;;;22.47;14.27;;;5.60;99.90;;;;;;5065918;28;20213;-84
2021/01/03 13:04:51;;;;;;;23.83;14.33;;;5.60;99.90;;;;;;5066791;28;20221;-84
2021/01/03 13:07:19;;;;;;;24.13;13.93;;;5.70;99.90;;;;;;5067357;28;20488;-84